createdAt,value
2023-02-02T00:04:46.860Z,5.51505016722408
2023-02-02T00:11:09.127Z,5.986622073578595
2023-02-02T00:24:38.850Z,6.34113712374582
2023-02-02T00:30:59.964Z,5.2040133779264215
2023-02-02T00:38:24.939Z,6.3076923076923075
2023-02-02T00:44:46.371Z,5.969899665551839
2023-02-02T00:51:07.624Z,4.846153846153846
2023-02-02T00:57:29.465Z,5.494983277591973
2023-02-02T01:05:37.625Z,5.591973244147157
2023-02-02T01:11:58.995Z,5.1237458193979935
2023-02-02T01:18:20.597Z,4.234113712374582
2023-02-02T01:24:41.638Z,3.9096989966555182
2023-02-02T01:31:02.917Z,3.3846153846153846
2023-02-02T01:41:45.930Z,3.9531772575250836
2023-02-02T01:48:06.870Z,4.48494983277592
2023-02-02T01:54:28.435Z,4.8595317725752505
2023-02-02T02:00:49.196Z,5.792642140468227
2023-02-02T02:07:10.705Z,3.879598662207358
2023-02-02T02:13:33.487Z,6.505016722408027
2023-02-02T02:19:55.475Z,5.103678929765886
2023-02-02T02:26:17.472Z,5.7157190635451505
2023-02-02T02:37:46.422Z,5.595317725752508
2023-02-02T02:44:08.428Z,4.896321070234114
2023-02-02T02:50:30.227Z,6.234113712374582
2023-02-02T02:56:52.798Z,4.88628762541806
2023-02-02T03:03:15.815Z,5.6521739130434785
2023-02-02T03:13:33.917Z,4.424749163879599
2023-02-02T03:19:55.816Z,4.20066889632107
2023-02-02T03:34:36.126Z,4.2675585284280935
2023-02-02T03:40:58.184Z,3.632107023411371
2023-02-02T03:47:20.521Z,4.6923076923076925
2023-02-02T03:53:42.370Z,5.090301003344481
2023-02-02T04:00:03.937Z,4.468227424749164
2023-02-02T04:06:25.615Z,4.133779264214047
2023-02-02T04:14:49.117Z,4.555183946488294
2023-02-02T04:21:10.635Z,5.7558528428093645
2023-02-02T04:27:32.444Z,4.648829431438127
2023-02-02T04:33:54.343Z,5.959866220735786
2023-02-02T04:45:49.239Z,5.769230769230769
2023-02-02T04:54:12.094Z,4.933110367892977
2023-02-02T05:00:34.073Z,6.662207357859532
2023-02-02T05:06:55.738Z,5.581939799331104
2023-02-02T05:13:17.411Z,6.043478260869565
2023-02-02T05:23:26.188Z,5.170568561872909
2023-02-02T05:29:48.048Z,5.190635451505017
2023-02-02T05:37:36.421Z,4.153846153846154
2023-02-02T05:46:17.586Z,5.080267558528428
2023-02-02T05:52:38.936Z,5.8361204013377925
2023-02-02T05:59:00.320Z,6.889632107023411
2023-02-02T06:05:22.572Z,6.849498327759197
2023-02-02T06:11:44.306Z,6.120401337792642
2023-02-02T06:18:05.980Z,4.250836120401337
2023-02-02T06:24:38.878Z,5.648829431438127
2023-02-02T06:31:00.681Z,6.668896321070235
2023-02-02T06:37:22.579Z,6.053511705685619
2023-02-02T06:43:44.195Z,6.976588628762542
2023-02-02T06:50:06.136Z,6.8996655518394645
2023-02-02T06:56:27.193Z,6.923076923076923
2023-02-02T07:02:48.128Z,7.79933110367893
2023-02-02T07:11:13.236Z,7.678929765886288
2023-02-02T07:17:37.024Z,9.050167224080267
2023-02-02T07:23:58.917Z,6.782608695652174
2023-02-02T07:31:05.851Z,7.68561872909699
2023-02-02T07:39:39.093Z,6.568561872909699
2023-02-02T07:48:00.754Z,7.471571906354515
2023-02-02T07:54:25.981Z,5.822742474916388
2023-02-02T08:00:50.836Z,8.33779264214047
2023-02-02T08:07:17.062Z,7.110367892976589
2023-02-02T08:19:31.596Z,7.1806020066889635
2023-02-02T08:31:02.239Z,7.4280936454849495
2023-02-02T08:43:24.088Z,8.755852842809364
2023-02-02T09:01:44.920Z,5.802675585284281
2023-02-02T09:08:47.643Z,6.68561872909699
2023-02-02T09:15:12.493Z,6.34113712374582
2023-02-02T09:24:26.357Z,6.20066889632107
2023-02-02T09:38:13.321Z,6.635451505016722
2023-02-02T09:44:37.986Z,5.525083612040134
2023-02-02T09:51:02.035Z,6.250836120401337
2023-02-02T09:57:26.878Z,6.8762541806020065
2023-02-02T10:05:38.961Z,5.538461538461538
2023-02-02T10:12:03.799Z,5.197324414715719
2023-02-02T10:25:48.193Z,9.91304347826087
2023-02-02T10:32:12.884Z,5.785953177257525
2023-02-02T10:38:37.884Z,5.929765886287625
2023-02-02T10:57:17.505Z,5.173913043478261
2023-02-02T11:11:58.470Z,6.173913043478261
2023-02-02T11:18:23.995Z,4.8595317725752505
2023-02-02T11:25:56.256Z,7.444816053511706
2023-02-02T11:33:19.612Z,6.441471571906354
2023-02-02T11:43:46.871Z,5.438127090301004
2023-02-02T11:53:30.175Z,5.548494983277592
2023-02-02T11:59:55.576Z,7.013377926421405
2023-02-02T12:06:20.659Z,4.983277591973244
2023-02-02T12:12:45.237Z,4.384615384615385
2023-02-02T12:19:10.681Z,5.110367892976589
2023-02-02T12:25:35.032Z,4.725752508361204
2023-02-02T12:31:59.744Z,6.88628762541806
2023-02-02T12:38:24.769Z,6.642140468227424
2023-02-02T12:46:29.461Z,8.672240802675585
2023-02-02T12:52:53.811Z,5.3244147157190636
2023-02-02T12:59:19.284Z,4.361204013377926
2023-02-02T13:05:43.566Z,8.521739130434783
2023-02-02T13:12:08.224Z,6.3244147157190636
2023-02-02T13:18:33.390Z,6.916387959866221
2023-02-02T13:25:00.012Z,4.7725752508361206
2023-02-02T13:31:25.253Z,4.949832775919733
2023-02-02T13:37:50.046Z,4.160535117056856
2023-02-02T13:44:16.040Z,3.1237458193979935
2023-02-02T13:50:40.756Z,4.2274247491638794
2023-02-02T13:57:05.381Z,4.6521739130434785
2023-02-02T14:03:30.172Z,4.237458193979933
2023-02-02T14:09:55.059Z,5.103678929765886
2023-02-02T14:16:20.290Z,4.468227424749164
2023-02-02T14:25:53.728Z,4.404682274247492
2023-02-02T14:32:42.832Z,5.05685618729097
2023-02-02T14:39:07.892Z,5.74247491638796
2023-02-02T14:45:33.483Z,6.160535117056856
2023-02-02T14:54:06.554Z,2.9364548494983276
2023-02-02T15:00:32.255Z,3.632107023411371
2023-02-02T15:37:14.879Z,3.0936454849498327
2023-02-02T15:43:55.242Z,3.451505016722408
2023-02-02T15:50:20.576Z,4.698996655518394
2023-02-02T16:01:09.991Z,3.588628762541806
2023-02-02T16:07:32.208Z,4.311036789297659
2023-02-02T16:13:53.669Z,3.317725752508361
2023-02-02T16:21:54.466Z,3.7525083612040135
2023-02-02T16:32:46.093Z,3.548494983277592
2023-02-02T16:39:09.066Z,2.3812709030100336
2023-02-02T16:45:33.632Z,4.210702341137123
2023-02-02T16:51:56.231Z,2.9096989966555182
2023-02-02T16:58:19.025Z,3.2642140468227425
2023-02-02T17:04:40.953Z,2.20066889632107
2023-02-02T17:11:03.637Z,3.0668896321070234
2023-02-02T17:23:08.611Z,2.9331103678929766
2023-02-02T17:29:30.813Z,3.0066889632107023
2023-02-02T17:35:55.262Z,4.2842809364548495
2023-02-02T17:42:18.086Z,3.8929765886287626
2023-02-02T17:48:39.650Z,2.8060200668896322
2023-02-02T17:59:59.542Z,2.6454849498327757
2023-02-02T18:14:24.170Z,2.37123745819398
2023-02-02T18:20:45.392Z,2.234113712374582
2023-02-02T18:27:06.481Z,3.9665551839464883
2023-02-02T18:33:31.555Z,3.1438127090301005
2023-02-02T18:39:54.099Z,2.120401337792642
2023-02-02T18:46:14.871Z,2.431438127090301
2023-02-02T18:52:35.476Z,2.5016722408026757
2023-02-02T18:59:26.757Z,2.739130434782609
2023-02-02T19:15:43.023Z,2.290969899665552
2023-02-02T19:22:07.873Z,2.3411371237458196
2023-02-02T19:30:29.039Z,4.290969899665551
2023-02-02T19:42:13.672Z,2.488294314381271
2023-02-02T19:54:22.128Z,2.4849498327759196
2023-02-02T20:01:50.093Z,1.9665551839464883
2023-02-02T20:08:11.793Z,2.5050167224080266
2023-02-02T20:17:34.882Z,2.20066889632107
2023-02-02T20:23:56.415Z,2.4581939799331103
2023-02-02T20:30:17.844Z,3.739130434782609
2023-02-02T20:36:39.019Z,2.709030100334448
2023-02-02T20:42:59.979Z,2.698996655518395
2023-02-02T20:49:21.307Z,3.1137123745819397
2023-02-02T20:55:42.651Z,3.8762541806020065
2023-02-02T21:02:04.403Z,4.334448160535117
2023-02-02T21:08:26.932Z,2.682274247491639
2023-02-02T21:14:54.107Z,2.8762541806020065
2023-02-02T21:21:16.020Z,3.274247491638796
2023-02-02T21:27:37.146Z,2.1872909698996654
2023-02-02T21:33:58.443Z,3.0267558528428093
2023-02-02T21:42:16.963Z,4.806020066889632
2023-02-02T21:48:37.923Z,3.959866220735786
2023-02-02T21:54:58.840Z,4.879598662207358
2023-02-02T22:01:19.727Z,6.37123745819398
2023-02-02T22:14:29.020Z,4.394648829431438
2023-02-02T22:20:49.965Z,4.05685618729097
2023-02-02T22:28:14.114Z,2.0468227424749164
2023-02-02T22:50:33.662Z,3.160535117056856
2023-02-02T22:56:55.773Z,2.3946488294314383
2023-02-02T23:03:20.079Z,3.923076923076923
2023-02-02T23:19:35.054Z,2.220735785953177
2023-02-02T23:25:56.534Z,2.488294314381271
2023-02-02T23:32:19.269Z,2.5418060200668897
2023-02-02T23:38:42.029Z,2.9966555183946486
2023-02-02T23:49:02.677Z,5.150501672240803
2023-02-02T23:55:25.187Z,2.979933110367893
